createdAt,value
2023-12-18T00:00:42.861Z,19.40
2023-12-18T00:03:51.210Z,20.70
2023-12-18T00:06:57.798Z,19.43
2023-12-18T00:10:04.512Z,16.97
2023-12-18T00:13:11.303Z,15.87
2023-12-18T00:16:17.831Z,13.80
2023-12-18T00:19:26.050Z,15.63
2023-12-18T00:22:32.969Z,13.00
2023-12-18T00:25:39.671Z,12.60
2023-12-18T00:28:46.520Z,12.20
2023-12-18T00:31:53.232Z,13.50
2023-12-18T00:35:01.420Z,13.10
2023-12-18T00:38:07.996Z,14.60
2023-12-18T00:41:14.934Z,15.93
2023-12-18T00:44:21.768Z,15.03
2023-12-18T00:47:28.080Z,15.70
2023-12-18T00:50:35.989Z,14.40
2023-12-18T00:53:42.734Z,14.07
2023-12-18T00:56:49.497Z,12.43
2023-12-18T00:59:55.938Z,14.43
2023-12-18T01:03:02.256Z,14.13
2023-12-18T01:06:10.429Z,13.93
2023-12-18T01:09:16.772Z,13.97
2023-12-18T01:12:23.207Z,13.30
2023-12-18T01:15:30.030Z,12.97
2023-12-18T01:18:36.869Z,14.57
2023-12-18T01:21:45.310Z,12.30
2023-12-18T01:24:52.000Z,12.30
2023-12-18T01:27:58.466Z,12.73
2023-12-18T01:31:05.370Z,12.93
2023-12-18T01:34:12.383Z,10.70
2023-12-18T01:37:20.829Z,13.63
2023-12-18T01:40:27.756Z,12.80
2023-12-18T01:43:34.443Z,13.80
2023-12-18T01:46:41.787Z,14.20
2023-12-18T01:49:50.448Z,15.33
2023-12-18T01:52:58.716Z,13.33
2023-12-18T01:56:07.015Z,14.63
2023-12-18T01:59:16.212Z,16.73
2023-12-18T02:02:23.364Z,18.57
2023-12-18T02:05:29.788Z,16.97
2023-12-18T02:08:38.220Z,16.33
2023-12-18T02:11:46.551Z,16.33
2023-12-18T02:14:54.252Z,13.50
2023-12-18T02:18:00.713Z,18.23
2023-12-18T02:21:07.439Z,32.70
2023-12-18T02:24:15.488Z,17.90
2023-12-18T02:27:22.759Z,17.77
2023-12-18T02:30:29.414Z,16.07
2023-12-18T02:33:36.258Z,13.93
2023-12-18T02:36:43.286Z,13.60
2023-12-18T02:39:51.360Z,16.03
2023-12-18T02:42:58.453Z,14.57
2023-12-18T02:46:05.654Z,15.37
2023-12-18T02:49:12.574Z,14.53
2023-12-18T02:52:19.333Z,15.13
2023-12-18T02:55:27.195Z,14.83
2023-12-18T02:58:33.616Z,18.43
2023-12-18T03:01:40.382Z,17.47
2023-12-18T03:04:47.366Z,17.73
2023-12-18T03:07:54.240Z,13.57
2023-12-18T03:11:02.196Z,14.47
2023-12-18T03:14:08.718Z,16.50
2023-12-18T03:17:15.579Z,15.70
2023-12-18T03:20:22.983Z,15.43
2023-12-18T03:23:30.145Z,18.40
2023-12-18T03:26:38.553Z,19.37
2023-12-18T03:29:45.047Z,15.67
2023-12-18T03:32:51.705Z,18.00
2023-12-18T03:35:58.416Z,17.33
2023-12-18T03:39:05.631Z,33.67
2023-12-18T03:42:14.203Z,18.53
2023-12-18T03:45:21.102Z,15.57
2023-12-18T03:48:28.690Z,17.37
2023-12-18T03:51:35.388Z,15.30
2023-12-18T03:54:42.197Z,15.37
2023-12-18T03:57:50.296Z,16.00
2023-12-18T04:00:57.099Z,16.40
2023-12-18T04:04:04.808Z,17.20
2023-12-18T04:07:11.285Z,19.70
2023-12-18T04:10:17.800Z,19.67
2023-12-18T04:13:25.974Z,15.50
2023-12-18T04:16:33.161Z,21.43
2023-12-18T04:19:39.881Z,24.23
2023-12-18T04:22:46.316Z,23.10
2023-12-18T04:25:52.767Z,26.83
2023-12-18T04:29:00.918Z,30.17
2023-12-18T04:32:07.704Z,26.67
2023-12-18T04:35:14.392Z,22.17
2023-12-18T04:38:21.161Z,18.37
2023-12-18T04:41:27.617Z,13.77
2023-12-18T04:44:35.429Z,18.83
2023-12-18T04:47:42.617Z,19.37
2023-12-18T04:50:49.541Z,20.93
2023-12-18T04:53:56.161Z,17.80
2023-12-18T04:57:02.482Z,13.73
2023-12-18T05:00:11.479Z,13.83
2023-12-18T05:03:18.764Z,16.03
2023-12-18T05:06:28.241Z,20.30
2023-12-18T05:09:34.864Z,17.67
2023-12-18T05:12:41.755Z,15.00
2023-12-18T05:15:52.862Z,16.67
2023-12-18T05:18:59.713Z,18.13
2023-12-18T05:22:06.178Z,24.03
2023-12-18T05:25:13.777Z,18.57
2023-12-18T05:28:21.243Z,23.37
2023-12-18T05:31:29.616Z,27.30
2023-12-18T05:34:36.409Z,29.23
2023-12-18T05:37:43.590Z,36.53
2023-12-18T05:40:50.376Z,33.77
2023-12-18T05:43:56.940Z,32.77
2023-12-18T05:47:05.025Z,31.97
2023-12-18T05:50:11.776Z,29.33
2023-12-18T05:53:18.573Z,34.10
2023-12-18T05:56:25.285Z,39.00
2023-12-18T05:59:32.193Z,32.13
2023-12-18T06:02:40.921Z,32.37
2023-12-18T06:05:48.298Z,22.70
2023-12-18T06:08:55.557Z,20.93
2023-12-18T06:12:02.262Z,22.00
2023-12-18T06:15:10.587Z,20.13
2023-12-18T06:18:19.161Z,26.30
2023-12-18T06:21:26.115Z,22.63
2023-12-18T06:24:32.957Z,20.17
2023-12-18T06:27:39.537Z,18.20
2023-12-18T06:30:46.561Z,22.67
2023-12-18T06:33:55.117Z,22.10
2023-12-18T06:37:01.838Z,31.57
2023-12-18T06:40:09.813Z,70.43
2023-12-18T06:43:16.427Z,75.70
2023-12-18T06:46:23.453Z,65.30
2023-12-18T06:49:31.767Z,37.30
2023-12-18T06:52:39.491Z,57.07
2023-12-18T06:55:46.319Z,64.90
2023-12-18T06:58:53.016Z,57.67
2023-12-18T07:01:59.899Z,43.37
2023-12-18T07:05:08.520Z,24.10
2023-12-18T07:08:15.094Z,24.50
2023-12-18T07:11:21.985Z,28.20
2023-12-18T07:14:28.499Z,24.57
2023-12-18T07:17:35.345Z,21.00
2023-12-18T07:20:44.972Z,24.07
2023-12-18T07:23:51.899Z,22.37
2023-12-18T07:26:58.632Z,21.57
2023-12-18T07:30:06.038Z,21.73
2023-12-18T07:33:12.872Z,33.53
2023-12-18T07:36:20.975Z,21.90
2023-12-18T07:39:28.076Z,21.60
2023-12-18T07:42:34.719Z,27.50
2023-12-18T07:45:41.428Z,27.63
2023-12-18T07:48:50.068Z,26.57
2023-12-18T07:51:58.633Z,34.33
2023-12-18T07:55:05.968Z,39.47
2023-12-18T07:58:12.863Z,30.37
2023-12-18T08:01:21.346Z,29.73
2023-12-18T08:04:28.560Z,25.57
2023-12-18T08:07:36.704Z,27.50
2023-12-18T08:10:44.291Z,34.07
2023-12-18T08:13:50.921Z,32.90
2023-12-18T08:16:57.461Z,30.40
2023-12-18T08:20:04.019Z,23.20
2023-12-18T08:23:12.341Z,24.77
2023-12-18T08:26:19.317Z,20.33
2023-12-18T08:29:26.849Z,18.97
2023-12-18T08:32:33.403Z,17.97
2023-12-18T08:35:40.301Z,21.33
2023-12-18T08:38:48.545Z,22.57
2023-12-18T08:41:55.229Z,19.77
2023-12-18T08:45:01.764Z,19.83
2023-12-18T08:48:09.743Z,17.57
2023-12-18T08:51:18.070Z,25.57
2023-12-18T08:54:26.250Z,21.03
2023-12-18T08:57:32.874Z,19.40
2023-12-18T09:00:39.779Z,19.90
2023-12-18T09:03:46.730Z,20.67
2023-12-18T09:06:53.218Z,17.13
2023-12-18T09:10:01.020Z,21.60
2023-12-18T09:13:07.527Z,22.50
2023-12-18T09:16:14.284Z,21.50
2023-12-18T09:19:20.589Z,21.07
2023-12-18T09:22:27.302Z,19.00
2023-12-18T09:25:35.224Z,19.00
2023-12-18T09:28:41.910Z,22.57
2023-12-18T09:31:49.047Z,32.57
2023-12-18T09:34:55.710Z,35.00
2023-12-18T09:38:02.732Z,45.07
2023-12-18T09:41:10.889Z,33.43
2023-12-18T09:44:17.903Z,41.50
2023-12-18T09:47:24.779Z,41.67
2023-12-18T09:50:31.639Z,37.00
2023-12-18T09:53:38.185Z,27.30
2023-12-18T09:56:49.600Z,23.70
2023-12-18T09:59:56.228Z,22.87
2023-12-18T10:03:03.369Z,24.63
2023-12-18T10:06:10.993Z,26.83
2023-12-18T10:09:18.436Z,27.33
2023-12-18T10:12:26.836Z,25.33
2023-12-18T10:15:35.037Z,22.03
2023-12-18T10:18:42.265Z,19.07
2023-12-18T10:21:50.652Z,22.57
2023-12-18T10:25:00.140Z,21.33
2023-12-18T10:28:08.784Z,20.90
2023-12-18T10:31:15.422Z,19.03
2023-12-18T10:34:23.796Z,18.63
2023-12-18T10:37:33.174Z,20.40
2023-12-18T10:40:40.575Z,16.23
2023-12-18T10:43:50.540Z,26.00
2023-12-18T10:46:59.617Z,24.73
2023-12-18T10:50:07.667Z,27.53
2023-12-18T10:53:18.548Z,32.37
2023-12-18T10:56:26.385Z,31.83
2023-12-18T10:59:36.669Z,35.23
2023-12-18T11:02:45.382Z,35.10
2023-12-18T11:05:53.729Z,38.27
2023-12-18T11:09:00.545Z,23.17
2023-12-18T11:12:08.360Z,32.17
2023-12-18T11:15:30.751Z,63.77
2023-12-18T11:18:52.025Z,36.33
2023-12-18T11:21:58.534Z,31.77
2023-12-18T11:25:06.746Z,21.00
2023-12-18T11:28:13.353Z,23.50
2023-12-18T11:31:22.367Z,23.60
2023-12-18T11:34:29.354Z,26.83
2023-12-18T11:37:43.997Z,24.60
2023-12-18T11:40:51.653Z,13.27
2023-12-18T11:43:58.832Z,17.07
2023-12-18T11:47:08.965Z,15.10
2023-12-18T11:50:16.042Z,9.10
2023-12-18T11:53:35.191Z,25.67
2023-12-18T11:56:43.986Z,22.57
2023-12-18T11:59:50.738Z,30.07
2023-12-18T12:03:00.284Z,18.20
2023-12-18T12:06:08.929Z,18.93
2023-12-18T12:09:15.855Z,15.20
2023-12-18T12:12:22.760Z,14.20
2023-12-18T12:15:29.818Z,16.90
2023-12-18T12:18:47.125Z,15.43
2023-12-18T12:21:53.622Z,14.30
2023-12-18T12:25:00.870Z,21.60
2023-12-18T12:28:07.549Z,17.73
2023-12-18T12:31:14.091Z,19.10
2023-12-18T12:34:22.332Z,24.47
2023-12-18T12:37:29.193Z,24.97
2023-12-18T12:40:40.238Z,26.60
2023-12-18T12:43:47.036Z,21.07
2023-12-18T12:46:53.900Z,29.70
2023-12-18T12:50:06.391Z,17.80
2023-12-18T12:53:13.212Z,21.60
2023-12-18T12:56:20.118Z,25.57
2023-12-18T12:59:27.000Z,21.67
2023-12-18T13:02:34.111Z,20.13
2023-12-18T13:05:43.414Z,23.97
2023-12-18T13:08:50.803Z,28.70
2023-12-18T13:11:57.391Z,19.97
2023-12-18T13:15:05.398Z,24.47
2023-12-18T13:18:12.619Z,22.67
2023-12-18T13:21:21.306Z,27.90
2023-12-18T13:24:28.322Z,20.30
2023-12-18T13:27:35.376Z,17.27
2023-12-18T13:30:41.905Z,37.87
2023-12-18T13:33:48.928Z,28.87
2023-12-18T13:36:57.506Z,23.53
2023-12-18T13:40:04.879Z,26.60
2023-12-18T13:43:11.471Z,53.73
2023-12-18T13:46:18.697Z,64.83
2023-12-18T13:49:25.824Z,79.07
2023-12-18T13:52:33.943Z,97.53
2023-12-18T13:55:40.435Z,94.53
2023-12-18T13:58:47.333Z,82.50
2023-12-18T14:01:54.031Z,94.00
2023-12-18T14:05:02.667Z,97.33
2023-12-18T14:08:10.931Z,79.07
2023-12-18T14:11:17.869Z,80.20
2023-12-18T14:14:24.280Z,74.83
2023-12-18T14:17:30.770Z,104.67
2023-12-18T14:20:37.610Z,107.87
2023-12-18T14:23:45.665Z,91.30
2023-12-18T14:26:52.262Z,110.30
2023-12-18T14:29:58.728Z,109.03
2023-12-18T14:33:05.881Z,84.17
2023-12-18T14:36:12.899Z,57.30
2023-12-18T14:39:21.100Z,56.73
2023-12-18T14:42:27.515Z,58.33
2023-12-18T14:45:34.073Z,54.03
2023-12-18T14:48:40.917Z,64.30
2023-12-18T14:51:47.602Z,74.33
2023-12-18T14:54:56.128Z,119.07
2023-12-18T14:58:04.802Z,149.00
2023-12-18T15:01:11.404Z,30.23
2023-12-18T15:04:26.353Z,60.57
2023-12-18T15:07:35.858Z,49.97
2023-12-18T15:10:43.962Z,38.03
2023-12-18T15:13:51.162Z,70.60
2023-12-18T15:17:02.014Z,60.80
2023-12-18T15:20:11.409Z,82.47
2023-12-18T15:23:18.368Z,68.30
2023-12-18T15:26:26.742Z,79.47
2023-12-18T15:29:33.308Z,84.57
2023-12-18T15:32:42.951Z,249.90
2023-12-18T15:35:50.105Z,102.53
2023-12-18T15:38:57.934Z,45.73
2023-12-18T15:42:06.286Z,44.23
2023-12-18T15:45:13.602Z,38.73
2023-12-18T15:48:20.657Z,50.47
2023-12-18T15:51:27.768Z,46.50
2023-12-18T15:54:34.466Z,51.77
2023-12-18T15:57:42.664Z,71.70
2023-12-18T16:00:49.575Z,102.27
2023-12-18T16:03:57.527Z,99.97
2023-12-18T16:07:06.005Z,95.77
2023-12-18T16:10:12.813Z,60.30
2023-12-18T16:13:20.784Z,71.50
2023-12-18T16:16:27.226Z,61.77
2023-12-18T16:19:34.874Z,57.77
2023-12-18T16:22:41.910Z,46.67
2023-12-18T16:25:48.882Z,48.73
2023-12-18T16:28:57.220Z,34.73
2023-12-18T16:32:08.073Z,48.07
2023-12-18T16:35:14.805Z,67.27
2023-12-18T16:38:21.833Z,53.90
2023-12-18T16:41:32.486Z,51.73
2023-12-18T16:44:40.839Z,53.60
2023-12-18T16:47:47.713Z,67.00
2023-12-18T16:50:55.744Z,72.07
2023-12-18T16:54:02.304Z,78.40
2023-12-18T16:57:08.516Z,231.67
2023-12-18T17:00:17.197Z,153.77
2023-12-18T17:03:24.084Z,82.57
2023-12-18T17:06:30.847Z,77.30
2023-12-18T17:09:37.266Z,56.27
2023-12-18T17:12:44.709Z,61.10
2023-12-18T17:15:52.890Z,61.10
2023-12-18T17:18:59.595Z,43.47
2023-12-18T17:22:06.732Z,30.63
2023-12-18T17:25:12.925Z,30.70
2023-12-18T17:28:19.711Z,48.73
2023-12-18T17:31:31.528Z,44.70
2023-12-18T17:34:39.260Z,44.57
2023-12-18T17:37:46.046Z,51.23
2023-12-18T17:40:53.031Z,59.27
2023-12-18T17:44:00.016Z,56.07
2023-12-18T17:47:08.094Z,66.53
2023-12-18T17:50:14.808Z,69.03
2023-12-18T17:53:23.026Z,89.07
2023-12-18T17:56:29.589Z,82.27
2023-12-18T17:59:36.019Z,97.53
2023-12-18T18:02:44.148Z,87.27
2023-12-18T18:05:51.088Z,153.87
2023-12-18T18:08:58.107Z,136.57
2023-12-18T18:12:05.606Z,93.33
2023-12-18T18:15:12.258Z,97.10
2023-12-18T18:18:21.327Z,129.97
2023-12-18T18:21:28.368Z,64.90
2023-12-18T18:24:34.915Z,51.77
2023-12-18T18:27:41.969Z,51.70
2023-12-18T18:30:50.460Z,77.00
2023-12-18T18:34:01.397Z,129.60
2023-12-18T18:37:07.993Z,120.27
2023-12-18T18:40:15.162Z,124.00
2023-12-18T18:43:21.967Z,211.73
2023-12-18T18:46:29.316Z,69.10
2023-12-18T18:49:37.126Z,70.53
2023-12-18T18:52:43.952Z,71.20
2023-12-18T18:55:50.653Z,50.77
2023-12-18T18:58:57.596Z,147.10
2023-12-18T19:02:04.257Z,130.37
2023-12-18T19:05:12.752Z,65.77
2023-12-18T19:08:22.011Z,84.30
2023-12-18T19:11:28.498Z,79.33
2023-12-18T19:14:34.673Z,79.73
2023-12-18T19:17:43.663Z,72.57
2023-12-18T19:20:54.163Z,84.90
2023-12-18T19:24:00.495Z,133.80
2023-12-18T19:27:07.074Z,134.47
2023-12-18T19:30:14.919Z,49.00
2023-12-18T19:33:21.954Z,45.47
2023-12-18T19:36:30.539Z,30.00
2023-12-18T19:39:37.110Z,52.00
2023-12-18T19:42:44.010Z,38.80
2023-12-18T19:45:50.656Z,55.70
2023-12-18T19:48:56.984Z,97.80
2023-12-18T19:52:06.054Z,89.67
2023-12-18T19:55:12.912Z,88.97
2023-12-18T19:58:19.822Z,73.07
2023-12-18T20:01:26.202Z,40.73
2023-12-18T20:04:33.029Z,28.73
2023-12-18T20:07:41.573Z,59.70
2023-12-18T20:10:48.766Z,49.57
2023-12-18T20:13:55.431Z,55.40
2023-12-18T20:17:02.212Z,50.40
2023-12-18T20:20:09.814Z,46.37
2023-12-18T20:23:18.051Z,42.87
2023-12-18T20:26:24.477Z,50.37
2023-12-18T20:29:33.869Z,76.23
2023-12-18T20:32:42.329Z,84.80
2023-12-18T20:35:48.957Z,74.93
2023-12-18T20:38:56.935Z,83.83
2023-12-18T20:42:03.441Z,67.50
2023-12-18T20:45:10.285Z,67.73
2023-12-18T20:51:26.486Z,57.60
2023-12-18T20:54:34.483Z,87.57
2023-12-18T20:57:41.797Z,66.73
2023-12-18T21:00:48.699Z,63.77
2023-12-18T21:03:55.785Z,63.50
2023-12-18T21:07:02.464Z,71.13
2023-12-18T21:10:13.336Z,50.33
2023-12-18T21:13:20.204Z,89.00
2023-12-18T21:16:26.967Z,104.00
2023-12-18T21:19:33.364Z,100.40
2023-12-18T21:22:40.334Z,84.00
2023-12-18T21:25:48.818Z,77.07
2023-12-18T21:28:55.392Z,75.60
2023-12-18T21:32:01.767Z,69.83
2023-12-18T21:35:10.437Z,63.73
2023-12-18T21:38:16.967Z,63.53
2023-12-18T21:41:25.277Z,82.47
2023-12-18T21:44:32.308Z,49.77
2023-12-18T21:47:40.755Z,40.37
2023-12-18T21:50:47.604Z,39.63
2023-12-18T21:53:54.094Z,37.10
2023-12-18T21:57:01.756Z,42.67
2023-12-18T22:00:09.761Z,44.93
2023-12-18T22:03:18.577Z,45.53
2023-12-18T22:06:25.125Z,45.53
2023-12-18T22:09:31.767Z,45.50
2023-12-18T22:12:39.900Z,56.37
2023-12-18T22:15:46.620Z,38.33
2023-12-18T22:18:53.336Z,31.53
2023-12-18T22:22:01.054Z,39.90
2023-12-18T22:25:08.841Z,41.20
2023-12-18T22:28:17.344Z,36.80
2023-12-18T22:31:23.930Z,36.70
2023-12-18T22:34:32.190Z,53.03
2023-12-18T22:37:38.873Z,24.37
2023-12-18T22:40:45.281Z,26.57
2023-12-18T22:43:53.581Z,23.43
2023-12-18T22:46:59.833Z,27.33
2023-12-18T22:50:07.514Z,27.33
2023-12-18T22:53:17.548Z,29.17
2023-12-18T22:56:26.417Z,27.67
2023-12-18T22:59:34.453Z,26.13
2023-12-18T23:02:40.960Z,23.53
2023-12-18T23:05:47.896Z,19.30
2023-12-18T23:08:54.212Z,21.37
2023-12-18T23:12:00.864Z,29.90
2023-12-18T23:15:11.035Z,29.37
2023-12-18T23:18:18.155Z,25.67
2023-12-18T23:21:24.540Z,30.03
2023-12-18T23:24:30.986Z,32.80
2023-12-18T23:27:37.241Z,34.00
2023-12-18T23:30:45.548Z,35.60
2023-12-18T23:33:52.647Z,30.93
2023-12-18T23:36:59.238Z,30.67
2023-12-18T23:40:06.558Z,33.80
2023-12-18T23:43:14.655Z,27.60
2023-12-18T23:46:22.960Z,28.27
2023-12-18T23:49:29.499Z,29.87
2023-12-18T23:52:36.147Z,30.63
2023-12-18T23:55:43.357Z,31.77
2023-12-18T23:58:50.036Z,25.83
